Time;durP1;ratioP1;P1;durP2;ratioP2;P2;SDS_P1;SDS_P2;PMS_P1;PMS_P2;Temp;Humidity;BMP_temperature;BMP_pressure;BME280_temperature;BME280_humidity;BME280_pressure;Samples;Min_cycle;Max_cycle;Signal;HPM_P1;HPM_P2
2023/03/11 00:00:30;;;;;;;;;;;;;;;;;;5093854;28;19951;-66
2023/03/11 00:02:56;;;;;;;;;;;;;;;;;;5094267;28;19908;-66
2023/03/11 00:05:22;;;;;;;;;;;;;;;;;;5094497;28;19908;-66
2023/03/11 00:07:48;;;;;;;;;;;;;;;;;;5093811;28;19912;-68
2023/03/11 00:10:14;;;;;;;;;;;;;;;;;;5076047;28;19908;-66
2023/03/11 00:12:40;;;;;;;;;;;;;;;;;;5075897;28;20489;-66
2023/03/11 00:15:05;;;;;;;;;;;;;;;;;;5093696;28;19952;-67
2023/03/11 00:17:31;;;;;;;;;;;;;;;;;;5093982;28;19912;-67
2023/03/11 00:19:57;;;;;;;;;;;;;;;;;;5094039;28;19946;-66
2023/03/11 00:22:23;;;;;;;;;;;;;;;;;;5093577;28;19908;-66
2023/03/11 00:24:49;;;;;;;;;;;;;;;;;;5093972;28;20440;-66
2023/03/11 00:27:15;;;;;;;;;;;;;;;;;;5093368;28;19940;-66
2023/03/11 00:29:41;;;;;;;;;;;;;;;;;;5075734;28;19976;-67
2023/03/11 00:32:07;;;;;;;;;;;;;;;;;;5093902;28;19912;-66
2023/03/11 00:34:33;;;;;;;;;;;;;;;;;;5093508;28;19966;-66
2023/03/11 00:36:59;;;;;;;;;;;;;;;;;;5094147;28;19908;-64
2023/03/11 00:39:25;;;;;;;;;;;;;;;;;;5075769;28;19933;-66
2023/03/11 00:41:51;;;;;;;;;;;;;;;;;;5093459;28;20378;-66
2023/03/11 00:44:17;;;;;;;;;;;;;;;;;;5094040;28;20367;-67
2023/03/11 00:46:43;;;;;;;;;;;;;;;;;;5094089;28;19950;-66
2023/03/11 00:49:10;;;;;;;;;;;;;;;;;;5093511;28;19916;-66
2023/03/11 00:51:36;;;;;;;;;;;;;;;;;;5097807;28;19915;-65
2023/03/11 00:54:01;;;;;;;;;;;;;;;;;;5097771;28;19908;-64
2023/03/11 00:56:27;;;;;;;;;;;;;;;;;;5097413;28;19912;-65
2023/03/11 00:58:53;;;;;;;;;;;;;;;;;;5097763;28;19954;-65
2023/03/11 01:01:19;;;;;;;;;;;;;;;;;;5097634;28;19908;-64
2023/03/11 01:03:45;;;;;;;;;;;;;;;;;;5079038;28;20361;-66
2023/03/11 01:06:11;;;;;;;;;;;;;;;;;;5097578;28;19955;-66
2023/03/11 01:08:37;;;;;;;;;;;;;;;;;;5098029;28;20007;-66
2023/03/11 01:11:03;;;;;;;;;;;;;;;;;;5097130;28;20363;-66
2023/03/11 01:13:29;;;;;;;;;;;;;;;;;;5098010;28;20410;-66
2023/03/11 01:15:55;;;;;;;;;;;;;;;;;;5097400;28;20458;-66
2023/03/11 01:18:21;;;;;;;;;;;;;;;;;;5097033;28;20292;-66
2023/03/11 01:20:47;;;;;;;;;;;;;;;;;;5097316;28;19943;-66
2023/03/11 01:23:13;;;;;;;;;;;;;;;;;;5097418;28;19915;-66
2023/03/11 01:25:39;;;;;;;;;;;;;;;;;;5096881;28;19908;-66
2023/03/11 01:28:05;;;;;;;;;;;;;;;;;;5096948;28;19992;-66
2023/03/11 01:30:31;;;;;;;;;;;;;;;;;;5078580;28;19912;-66
2023/03/11 01:32:57;;;;;;;;;;;;;;;;;;5097059;28;19943;-66
2023/03/11 01:35:23;;;;;;;;;;;;;;;;;;5097010;28;19940;-66
2023/03/11 01:37:49;;;;;;;;;;;;;;;;;;5096502;28;19908;-66
2023/03/11 01:40:15;;;;;;;;;;;;;;;;;;5096912;28;19908;-66
2023/03/11 01:42:41;;;;;;;;;;;;;;;;;;5096891;28;19919;-66
2023/03/11 01:45:06;;;;;;;;;;;;;;;;;;5096695;28;19908;-66
2023/03/11 01:47:32;;;;;;;;;;;;;;;;;;5096723;28;20287;-66
2023/03/11 01:49:58;;;;;;;;;;;;;;;;;;5078600;28;20287;-66
2023/03/11 01:52:24;;;;;;;;;;;;;;;;;;5096279;28;19998;-66
2023/03/11 01:54:50;;;;;;;;;;;;;;;;;;5097166;28;20364;-66
2023/03/11 01:57:16;;;;;;;;;;;;;;;;;;5078367;28;20284;-66
2023/03/11 01:59:42;;;;;;;;;;;;;;;;;;5096326;28;19912;-66
2023/03/11 02:02:08;;;;;;;;;;;;;;;;;;5077907;28;19912;-66
2023/03/11 02:04:34;;;;;;;;;;;;;;;;;;5096337;28;19908;-66
2023/03/11 02:07:00;;;;;;;;;;;;;;;;;;5095972;28;19919;-66
2023/03/11 02:09:26;;;;;;;;;;;;;;;;;;5078131;28;20363;-66
2023/03/11 02:11:52;;;;;;;;;;;;;;;;;;5096386;28;20337;-66
2023/03/11 02:14:18;;;;;;;;;;;;;;;;;;5077815;28;20448;-66
2023/03/11 02:16:44;;;;;;;;;;;;;;;;;;5096262;28;20501;-66
2023/03/11 02:19:10;;;;;;;;;;;;;;;;;;5096156;28;19931;-66
2023/03/11 02:21:36;;;;;;;;;;;;;;;;;;5095880;28;19912;-66
2023/03/11 02:24:02;;;;;;;;;;;;;;;;;;5096078;28;19947;-66
2023/03/11 02:26:28;;;;;;;;;;;;;;;;;;5096008;28;19954;-66
2023/03/11 02:28:54;;;;;;;;;;;;;;;;;;5095409;28;19974;-66
2023/03/11 02:31:19;;;;;;;;;;;;;;;;;;5095965;28;19908;-66
2023/03/11 02:33:45;;;;;;;;;;;;;;;;;;5077786;28;19908;-66
2023/03/11 02:36:11;;;;;;;;;;;;;;;;;;5095474;28;19909;-66
2023/03/11 02:38:37;;;;;;;;;;;;;;;;;;5096048;28;20391;-66
2023/03/11 02:41:03;;;;;;;;;;;;;;;;;;5095369;28;19912;-66
2023/03/11 02:43:29;;;;;;;;;;;;;;;;;;5095891;28;19916;-66
2023/03/11 02:45:55;;;;;;;;;;;;;;;;;;5095933;28;19990;-66
2023/03/11 02:48:22;;;;;;;;;;;;;;;;;;5095131;28;20015;-66
2023/03/11 02:50:48;;;;;;;;;;;;;;;;;;5077383;28;19908;-66
2023/03/11 02:53:14;;;;;;;;;;;;;;;;;;5095476;28;19915;-66
2023/03/11 02:55:40;;;;;;;;;;;;;;;;;;5095383;28;20356;-66
2023/03/11 02:58:06;;;;;;;;;;;;;;;;;;5095453;28;19954;-66
2023/03/11 03:00:33;;;;;;;;;;;;;;;;;;5095355;28;19954;-66
2023/03/11 03:02:59;;;;;;;;;;;;;;;;;;5094967;28;19912;-66
2023/03/11 03:05:25;;;;;;;;;;;;;;;;;;5095268;28;19931;-66
2023/03/11 03:07:51;;;;;;;;;;;;;;;;;;5076960;28;19912;-66
2023/03/11 03:10:17;;;;;;;;;;;;;;;;;;5094916;28;19920;-66
2023/03/11 03:12:43;;;;;;;;;;;;;;;;;;5094302;28;20429;-66
2023/03/11 03:15:09;;;;;;;;;;;;;;;;;;5095730;28;20348;-66
2023/03/11 03:17:34;;;;;;;;;;;;;;;;;;5094589;28;20015;-66
2023/03/11 03:20:00;;;;;;;;;;;;;;;;;;5095628;28;20340;-66
2023/03/11 03:22:28;;;;;;;;;;;;;;;;;;5094931;28;20269;-66
2023/03/11 03:24:54;;;;;;;;;;;;;;;;;;5094570;28;19908;-66
2023/03/11 03:27:20;;;;;;;;;;;;;;;;;;5094734;28;19908;-66
2023/03/11 03:29:46;;;;;;;;;;;;;;;;;;5094779;28;19923;-66
2023/03/11 03:32:12;;;;;;;;;;;;;;;;;;5094411;28;19915;-66
2023/03/11 03:34:38;;;;;;;;;;;;;;;;;;5094721;28;19908;-66
2023/03/11 03:37:03;;;;;;;;;;;;;;;;;;5094653;28;19908;-66
2023/03/11 03:39:29;;;;;;;;;;;;;;;;;;5094531;28;20024;-66
2023/03/11 03:41:55;;;;;;;;;;;;;;;;;;5094616;28;19931;-66
2023/03/11 03:44:21;;;;;;;;;;;;;;;;;;5094214;28;19912;-66
2023/03/11 03:46:47;;;;;;;;;;;;;;;;;;5094505;28;19908;-66
2023/03/11 03:49:13;;;;;;;;;;;;;;;;;;5076180;28;20023;-66
2023/03/11 03:51:39;;;;;;;;;;;;;;;;;;5094053;28;19909;-66
2023/03/11 03:54:05;;;;;;;;;;;;;;;;;;5094613;28;19908;-66
2023/03/11 03:56:31;;;;;;;;;;;;;;;;;;5094634;28;19912;-66
2023/03/11 03:58:57;;;;;;;;;;;;;;;;;;5093950;28;19914;-66
2023/03/11 04:01:23;;;;;;;;;;;;;;;;;;5094312;28;19909;-66
2023/03/11 04:03:49;;;;;;;;;;;;;;;;;;5094853;28;20411;-66
2023/03/11 04:06:15;;;;;;;;;;;;;;;;;;5093892;28;20392;-68
2023/03/11 04:08:41;;;;;;;;;;;;;;;;;;5094035;28;20374;-67
2023/03/11 04:11:07;;;;;;;;;;;;;;;;;;5094727;28;19930;-66
2023/03/11 04:13:33;;;;;;;;;;;;;;;;;;5075646;28;20003;-66
2023/03/11 04:15:59;;;;;;;;;;;;;;;;;;5094057;28;20280;-65
2023/03/11 04:18:25;;;;;;;;;;;;;;;;;;5094522;28;20364;-66
2023/03/11 04:20:50;;;;;;;;;;;;;;;;;;5093751;28;20415;-65
2023/03/11 04:23:16;;;;;;;;;;;;;;;;;;5094090;28;20003;-65
2023/03/11 04:25:42;;;;;;;;;;;;;;;;;;5093992;28;19954;-65
2023/03/11 04:28:08;;;;;;;;;;;;;;;;;;5093176;28;19924;-66
2023/03/11 04:30:34;;;;;;;;;;;;;;;;;;5094150;28;19987;-65
2023/03/11 04:33:00;;;;;;;;;;;;;;;;;;5075839;28;19912;-65
2023/03/11 04:35:26;;;;;;;;;;;;;;;;;;5093560;28;19914;-65
2023/03/11 04:37:52;;;;;;;;;;;;;;;;;;5093838;28;19908;-66
2023/03/11 04:40:18;;;;;;;;;;;;;;;;;;5075739;28;19915;-66
2023/03/11 04:42:44;;;;;;;;;;;;;;;;;;5093481;28;19915;-66
2023/03/11 04:45:10;;;;;;;;;;;;;;;;;;5093970;28;19912;-66
2023/03/11 04:47:36;;;;;;;;;;;;;;;;;;5076123;28;19915;-66
2023/03/11 04:50:02;;;;;;;;;;;;;;;;;;5093709;28;19916;-66
2023/03/11 04:52:28;;;;;;;;;;;;;;;;;;5093985;28;19919;-66
2023/03/11 04:54:54;;;;;;;;;;;;;;;;;;5075044;28;19908;-65
2023/03/11 04:57:20;;;;;;;;;;;;;;;;;;5075492;28;19998;-65
2023/03/11 04:59:46;;;;;;;;;;;;;;;;;;5075550;28;19961;-65
2023/03/11 05:02:12;;;;;;;;;;;;;;;;;;5075084;28;20314;-66
2023/03/11 05:04:38;;;;;;;;;;;;;;;;;;5093630;28;20015;-66
2023/03/11 05:07:04;;;;;;;;;;;;;;;;;;5093570;28;19908;-66
2023/03/11 05:09:30;;;;;;;;;;;;;;;;;;5093096;28;19924;-65
2023/03/11 05:11:56;;;;;;;;;;;;;;;;;;5093486;28;19995;-65
2023/03/11 05:14:22;;;;;;;;;;;;;;;;;;5075390;28;19909;-66
2023/03/11 05:16:47;;;;;;;;;;;;;;;;;;5093013;28;20376;-66
2023/03/11 05:21:58;;;;;;;;;;;;;;;;;;5093724;28;19961;-67
2023/03/11 05:24:25;;;;;;;;;;;;;;;;;;5093045;28;19912;-67
2023/03/11 05:26:51;;;;;;;;;;;;;;;;;;5093377;28;19959;-67
2023/03/11 05:29:17;;;;;;;;;;;;;;;;;;5093163;28;19966;-66
2023/03/11 05:31:42;;;;;;;;;;;;;;;;;;5092930;28;19908;-67
2023/03/11 05:34:08;;;;;;;;;;;;;;;;;;5093610;28;19950;-67
2023/03/11 05:36:34;;;;;;;;;;;;;;;;;;5095539;28;19908;-67
2023/03/11 05:39:00;;;;;;;;;;;;;;;;;;5078357;28;19912;-66
2023/03/11 05:41:26;;;;;;;;;;;;;;;;;;5096948;28;20038;-67
2023/03/11 05:43:52;;;;;;;;;;;;;;;;;;5096456;28;19908;-66
2023/03/11 05:46:19;;;;;;;;;;;;;;;;;;5096904;28;19908;-67
2023/03/11 05:48:45;;;;;;;;;;;;;;;;;;5078516;28;19935;-66
2023/03/11 05:51:11;;;;;;;;;;;;;;;;;;5096800;28;19912;-67
2023/03/11 05:53:37;;;;;;;;;;;;;;;;;;5096647;28;20324;-66
2023/03/11 05:56:03;;;;;;;;;;;;;;;;;;5096761;28;20436;-66
2023/03/11 05:58:29;;;;;;;;;;;;;;;;;;5096491;28;19954;-66
2023/03/11 06:00:54;;;;;;;;;;;;;;;;;;5096555;28;19908;-66
2023/03/11 06:03:20;;;;;;;;;;;;;;;;;;5096899;28;19912;-67
2023/03/11 06:05:46;;;;;;;;;;;;;;;;;;5095969;28;20383;-66
2023/03/11 06:08:12;;;;;;;;;;;;;;;;;;5096644;28;20360;-66
2023/03/11 06:10:38;;;;;;;;;;;;;;;;;;5096972;28;20344;-66
2023/03/11 06:13:04;;;;;;;;;;;;;;;;;;5095974;28;19915;-66
2023/03/11 06:15:30;;;;;;;;;;;;;;;;;;5096207;28;19916;-66
2023/03/11 06:17:56;;;;;;;;;;;;;;;;;;5096176;28;19955;-67
2023/03/11 06:20:22;;;;;;;;;;;;;;;;;;5095836;28;19908;-66
2023/03/11 06:22:48;;;;;;;;;;;;;;;;;;5096171;28;19915;-66
2023/03/11 06:25:14;;;;;;;;;;;;;;;;;;5096636;28;19995;-66
2023/03/11 06:27:40;;;;;;;;;;;;;;;;;;5095512;28;20034;-66
2023/03/11 06:30:06;;;;;;;;;;;;;;;;;;5095964;28;19923;-66
2023/03/11 06:32:33;;;;;;;;;;;;;;;;;;5096061;28;19912;-66
2023/03/11 06:34:59;;;;;;;;;;;;;;;;;;5095486;28;20000;-66
2023/03/11 06:37:25;;;;;;;;;;;;;;;;;;5095764;28;19916;-66
2023/03/11 06:39:51;;;;;;;;;;;;;;;;;;5095755;28;19908;-66
2023/03/11 06:42:17;;;;;;;;;;;;;;;;;;5095383;28;19908;-66
2023/03/11 06:44:43;;;;;;;;;;;;;;;;;;5095633;28;19994;-66
2023/03/11 06:47:09;;;;;;;;;;;;;;;;;;5095191;28;19908;-66
2023/03/11 06:49:39;;;;;;;;;;;;;;;;;;5095445;28;20016;-66
2023/03/11 06:52:05;;;;;;;;;;;;;;;;;;5095792;28;19917;-66
2023/03/11 07:11:54;;;;;;;;;;;;;;;;;;5091640;27;19923;-73
2023/03/11 07:14:20;;;;;;;;;;;;;;;;;;5090605;28;20038;-72
2023/03/11 07:16:46;;;;;;;;;;;;;;;;;;5089697;28;19909;-72
2023/03/11 07:19:12;;;;;;;;;;;;;;;;;;5090817;28;19915;-72
2023/03/11 07:21:38;;;;;;;;;;;;;;;;;;5090528;28;19915;-72
2023/03/11 07:24:04;;;;;;;;;;;;;;;;;;5089615;28;19916;-72
2023/03/11 07:26:30;;;;;;;;;;;;;;;;;;5090880;28;19916;-72
2023/03/11 07:28:56;;;;;;;;;;;;;;;;;;5090440;28;19909;-72
2023/03/11 07:31:22;;;;;;;;;;;;;;;;;;5090662;28;19908;-72
2023/03/11 07:33:48;;;;;;;;;;;;;;;;;;5089541;28;19915;-72
2023/03/11 07:36:14;;;;;;;;;;;;;;;;;;5090243;28;19912;-72
2023/03/11 07:38:40;;;;;;;;;;;;;;;;;;5090593;28;19909;-72
2023/03/11 07:41:06;;;;;;;;;;;;;;;;;;5089134;28;20141;-72
2023/03/11 07:43:32;;;;;;;;;;;;;;;;;;5090199;28;19915;-74
2023/03/11 07:45:58;;;;;;;;;;;;;;;;;;5090513;28;19908;-73
2023/03/11 07:48:24;;;;;;;;;;;;;;;;;;5089287;28;19913;-73
2023/03/11 07:50:50;;;;;;;;;;;;;;;;;;5090165;28;19908;-73
2023/03/11 07:53:16;;;;;;;;;;;;;;;;;;5090608;28;19908;-73
2023/03/11 07:55:42;;;;;;;;;;;;;;;;;;5090626;28;19908;-73
2023/03/11 07:58:07;;;;;;;;;;;;;;;;;;5090128;28;19995;-73
2023/03/11 08:00:33;;;;;;;;;;;;;;;;;;5090806;28;19926;-73
2023/03/11 08:03:00;;;;;;;;;;;;;;;;;;5090835;28;19961;-73
2023/03/11 08:05:26;;;;;;;;;;;;;;;;;;5090195;28;19915;-73
2023/03/11 08:07:52;;;;;;;;;;;;;;;;;;5090247;28;19908;-73
2023/03/11 08:10:18;;;;;;;;;;;;;;;;;;5089732;28;20017;-73
2023/03/11 08:12:43;;;;;;;;;;;;;;;;;;5075862;28;19919;-73
2023/03/11 08:15:09;;;;;;;;;;;;;;;;;;5076476;28;19915;-73
2023/03/11 08:17:35;;;;;;;;;;;;;;;;;;5076229;28;19951;-73
2023/03/11 08:20:02;;;;;;;;;;;;;;;;;;5076258;28;20324;-73
2023/03/11 08:22:27;;;;;;;;;;;;;;;;;;5076288;28;19947;-73
2023/03/11 08:24:55;;;;;;;;;;;;;;;;;;5075945;28;19909;-73
2023/03/11 08:27:21;;;;;;;;;;;;;;;;;;5076836;28;19908;-73
2023/03/11 08:29:47;;;;;;;;;;;;;;;;;;5075026;28;19915;-73
2023/03/11 08:32:13;;;;;;;;;;;;;;;;;;5074536;28;19915;-73
2023/03/11 08:34:39;;;;;;;;;;;;;;;;;;5076117;28;19909;-73
2023/03/11 08:37:05;;;;;;;;;;;;;;;;;;5074772;28;20362;-73
2023/03/11 08:39:31;;;;;;;;;;;;;;;;;;5075677;28;19917;-73
2023/03/11 08:41:58;;;;;;;;;;;;;;;;;;5074696;28;19975;-73
2023/03/11 08:44:24;;;;;;;;;;;;;;;;;;5075876;28;19916;-73
2023/03/11 08:46:50;;;;;;;;;;;;;;;;;;5074227;28;20014;-74
2023/03/11 08:49:16;;;;;;;;;;;;;;;;;;5075811;28;19908;-74
2023/03/11 08:51:42;;;;;;;;;;;;;;;;;;5076038;28;19909;-73
2023/03/11 08:54:38;;;;;;;;;;;;;;;;;;5111333;27;19916;-72
2023/03/11 08:57:37;;;;;;;;;;;;;;;;;;5112561;27;19916;-73
2023/03/11 09:01:21;;;;;;;;;;;;;;;;;;5031098;28;20410;-74
2023/03/11 09:04:12;;;;;;;;;;;;;;;;;;5112489;27;20278;-72
2023/03/11 09:07:31;;;;;;;;;;;;;;;;;;5111711;27;19938;-73
2023/03/11 09:11:12;;;;;;;;;;;;;;;;;;5092152;28;19916;-72
2023/03/11 09:17:11;;;;;;;;;;;;;;;;;;5112183;27;19916;-73
2023/03/11 09:19:37;;;;;;;;;;;;;;;;;;5111706;28;19966;-73
2023/03/11 09:25:07;;;;;;;;;;;;;;;;;;5112051;27;19922;-74
2023/03/11 09:27:33;;;;;;;;;;;;;;;;;;5111772;28;20350;-74
2023/03/11 09:29:59;;;;;;;;;;;;;;;;;;5110055;28;19908;-74
2023/03/11 09:34:05;;;;;;;;;;;;;;;;;;5112244;27;19916;-74
2023/03/11 09:36:31;;;;;;;;;;;;;;;;;;5110139;28;20003;-74
2023/03/11 09:38:57;;;;;;;;;;;;;;;;;;5110386;28;19912;-74
2023/03/11 09:41:23;;;;;;;;;;;;;;;;;;5111678;28;19909;-74
2023/03/11 09:43:49;;;;;;;;;;;;;;;;;;5111262;28;20002;-74
2023/03/11 09:47:59;;;;;;;;;;;;;;;;;;5092195;27;19923;-74
2023/03/11 09:53:14;;;;;;;;;;;;;;;;;;5072049;28;19917;-74
2023/03/11 09:58:55;;;;;;;;;;;;;;;;;;5092109;27;20279;-74
2023/03/11 10:01:21;;;;;;;;;;;;;;;;;;5090145;28;19999;-72
2023/03/11 10:04:06;;;;;;;;;;;;;;;;;;5091364;27;19923;-74
2023/03/11 10:06:32;;;;;;;;;;;;;;;;;;5091675;28;20003;-73
2023/03/11 10:09:56;;;;;;;;;;;;;;;;;;5112079;27;19916;-74
2023/03/11 10:12:22;;;;;;;;;;;;;;;;;;5111710;28;19918;-74
2023/03/11 10:14:48;;;;;;;;;;;;;;;;;;5110438;28;19957;-74
2023/03/11 10:17:14;;;;;;;;;;;;;;;;;;5111505;28;19908;-72
2023/03/11 10:19:40;;;;;;;;;;;;;;;;;;5110293;28;19958;-73
2023/03/11 10:22:46;;;;;;;;;;;;;;;;;;5112617;27;19922;-72
2023/03/11 10:28:00;;;;;;;;;;;;;;;;;;5112589;27;19916;-72
2023/03/11 10:32:15;;;;;;;;;;;;;;;;;;5111638;27;19912;-72
2023/03/11 10:34:41;;;;;;;;;;;;;;;;;;5112309;28;19995;-72
2023/03/11 10:37:07;;;;;;;;;;;;;;;;;;5111547;28;19961;-73
2023/03/11 10:40:04;;;;;;;;;;;;;;;;;;5111335;27;19916;-72
2023/03/11 10:43:44;;;;;;;;;;;;;;;;;;5112547;27;19923;-73
2023/03/11 10:46:10;;;;;;;;;;;;;;;;;;5111492;28;19911;-72
2023/03/11 10:48:36;;;;;;;;;;;;;;;;;;5111686;28;19908;-73
2023/03/11 10:51:02;;;;;;;;;;;;;;;;;;5111676;28;19915;-72
2023/03/11 10:53:28;;;;;;;;;;;;;;;;;;5111314;28;19953;-72
2023/03/11 10:58:57;;;;;;;;;;;;;;;;;;5112474;27;19935;-72
2023/03/11 11:01:23;;;;;;;;;;;;;;;;;;5109979;28;19995;-73
2023/03/11 11:03:49;;;;;;;;;;;;;;;;;;5110400;28;20002;-72
2023/03/11 11:10:29;;;;;;;;;;;;;;;;;;5153385;27;20335;-72
2023/03/11 11:16:03;;;;;;;;;;;;;;;;;;5112272;27;20298;-73
2023/03/11 11:20:49;;;;;;;;;;;;;;;;;;5111378;27;19938;-71
2023/03/11 11:23:15;;;;;;;;;;;;;;;;;;5112261;28;19991;-74
2023/03/11 11:25:41;;;;;;;;;;;;;;;;;;5110404;28;20329;-74
2023/03/11 11:28:07;;;;;;;;;;;;;;;;;;5111224;28;20278;-74
2023/03/11 11:30:33;;;;;;;;;;;;;;;;;;5111550;28;20340;-72
2023/03/11 11:32:59;;;;;;;;;;;;;;;;;;5111498;28;20283;-71
2023/03/11 11:35:25;;;;;;;;;;;;;;;;;;5111419;28;20363;-72
2023/03/11 11:37:51;;;;;;;;;;;;;;;;;;5110143;28;20375;-72
2023/03/11 11:40:18;;;;;;;;;;;;;;;;;;5111378;28;20318;-73
2023/03/11 11:42:44;;;;;;;;;;;;;;;;;;5110908;28;19976;-73
2023/03/11 11:45:10;;;;;;;;;;;;;;;;;;5109992;28;20371;-73
2023/03/11 11:48:51;;;;;;;;;;;;;;;;;;5091480;27;19926;-72
2023/03/11 11:51:17;;;;;;;;;;;;;;;;;;5091382;28;19912;-74
2023/03/11 11:53:43;;;;;;;;;;;;;;;;;;5090171;28;19912;-75
2023/03/11 11:58:04;;;;;;;;;;;;;;;;;;5092184;27;19918;-74
2023/03/11 12:01:39;;;;;;;;;;;;;;;;;;5091959;27;19922;-74
2023/03/11 12:07:43;;;;;;;;;;;;;;;;;;5112607;27;20004;-74
2023/03/11 12:10:09;;;;;;;;;;;;;;;;;;5110113;28;19951;-74
2023/03/11 12:14:40;;;;;;;;;;;;;;;;;;5112590;27;19916;-74
2023/03/11 12:17:06;;;;;;;;;;;;;;;;;;5111484;28;20344;-74
2023/03/11 12:21:43;;;;;;;;;;;;;;;;;;5112126;27;19916;-74
2023/03/11 12:27:56;;;;;;;;;;;;;;;;;;5092093;27;20269;-73
2023/03/11 12:32:03;;;;;;;;;;;;;;;;;;5091155;27;20398;-73
2023/03/11 12:34:29;;;;;;;;;;;;;;;;;;5091235;28;20007;-73
2023/03/11 12:37:38;;;;;;;;;;;;;;;;;;5111843;27;20347;-72
2023/03/11 12:41:10;;;;;;;;;;;;;;;;;;5111983;27;19916;-73
2023/03/11 12:45:49;;;;;;;;;;;;;;;;;;5111704;27;20383;-73
2023/03/11 12:48:32;;;;;;;;;;;;;;;;;;5112379;27;19919;-74
2023/03/11 12:51:51;;;;;;;;;;;;;;;;;;5091678;27;19922;-74
2023/03/11 12:55:01;;;;;;;;;;;;;;;;;;5112437;27;19916;-74
2023/03/11 13:00:17;;;;;;;;;;;;;;;;;;5111569;27;20406;-74
2023/03/11 13:02:42;;;;;;;;;;;;;;;;;;5110495;28;19916;-74
2023/03/11 13:05:08;;;;;;;;;;;;;;;;;;5111760;28;20017;-74
2023/03/11 13:08:28;;;;;;;;;;;;;;;;;;5092248;27;19912;-75
2023/03/11 13:13:26;;;;;;;;;;;;;;;;;;5111855;27;19918;-74
2023/03/11 13:15:52;;;;;;;;;;;;;;;;;;5111743;28;19912;-74
2023/03/11 13:18:18;;;;;;;;;;;;;;;;;;5111717;28;20383;-75
2023/03/11 13:20:44;;;;;;;;;;;;;;;;;;5111443;28;19912;-74
2023/03/11 13:24:49;;;;;;;;;;;;;;;;;;5092186;27;19916;-73
2023/03/11 13:27:26;;;;;;;;;;;;;;;;;;5112057;27;20002;-73
2023/03/11 13:29:52;;;;;;;;;;;;;;;;;;5111571;28;19912;-73
2023/03/11 13:32:18;;;;;;;;;;;;;;;;;;5111940;28;19908;-73
2023/03/11 13:34:44;;;;;;;;;;;;;;;;;;5111468;28;20330;-73
2023/03/11 13:37:10;;;;;;;;;;;;;;;;;;5111810;28;20261;-73
2023/03/11 13:39:48;;;;;;;;;;;;;;;;;;5112704;27;19916;-73
2023/03/11 13:42:14;;;;;;;;;;;;;;;;;;5111646;28;19918;-73
2023/03/11 13:46:06;;;;;;;;;;;;;;;;;;5112201;27;19916;-74
2023/03/11 13:48:32;;;;;;;;;;;;;;;;;;5111495;28;20011;-75
2023/03/11 13:51:24;;;;;;;;;;;;;;;;;;5112588;27;20354;-73
2023/03/11 13:55:00;;;;;;;;;;;;;;;;;;5091600;27;19923;-74
2023/03/11 13:57:26;;;;;;;;;;;;;;;;;;5090136;28;20321;-75
2023/03/11 13:59:52;;;;;;;;;;;;;;;;;;5091259;28;19912;-74
2023/03/11 14:04:35;;;;;;;;;;;;;;;;;;5092784;27;20264;-74
2023/03/11 14:07:25;;;;;;;;;;;;;;;;;;5071431;28;19923;-73
2023/03/11 14:09:51;;;;;;;;;;;;;;;;;;5070724;28;19994;-73
2023/03/11 14:12:51;;;;;;;;;;;;;;;;;;5091687;27;19958;-72
2023/03/11 14:15:17;;;;;;;;;;;;;;;;;;5091317;28;20376;-71
2023/03/11 14:17:43;;;;;;;;;;;;;;;;;;5090924;28;19918;-74
2023/03/11 14:20:09;;;;;;;;;;;;;;;;;;5090090;28;20364;-74
2023/03/11 14:22:35;;;;;;;;;;;;;;;;;;5091223;28;19909;-74
2023/03/11 14:25:01;;;;;;;;;;;;;;;;;;5090797;28;19926;-74
2023/03/11 14:27:43;;;;;;;;;;;;;;;;;;5112626;27;19922;-74
2023/03/11 14:31:19;;;;;;;;;;;;;;;;;;5111676;27;19938;-74
2023/03/11 14:33:45;;;;;;;;;;;;;;;;;;5111811;28;19982;-74
2023/03/11 14:36:32;;;;;;;;;;;;;;;;;;5112573;27;20274;-75
2023/03/11 14:38:58;;;;;;;;;;;;;;;;;;5111441;28;19994;-74
2023/03/11 14:41:42;;;;;;;;;;;;;;;;;;5092240;27;20255;-74
2023/03/11 14:44:08;;;;;;;;;;;;;;;;;;5090968;28;19912;-74
2023/03/11 14:46:34;;;;;;;;;;;;;;;;;;5089926;28;20333;-73
2023/03/11 14:49:00;;;;;;;;;;;;;;;;;;5091250;28;20279;-73
2023/03/11 14:53:19;;;;;;;;;;;;;;;;;;5091032;27;19923;-74
2023/03/11 14:55:49;;;;;;;;;;;;;;;;;;5091323;28;20007;-74
2023/03/11 14:58:15;;;;;;;;;;;;;;;;;;5090888;28;19954;-75
2023/03/11 15:00:41;;;;;;;;;;;;;;;;;;5089994;28;19909;-74
2023/03/11 15:03:22;;;;;;;;;;;;;;;;;;5092282;27;19920;-74
2023/03/11 15:05:48;;;;;;;;;;;;;;;;;;5090991;28;20067;-74
2023/03/11 15:08:14;;;;;;;;;;;;;;;;;;5091248;28;19955;-74
2023/03/11 15:11:44;;;;;;;;;;;;;;;;;;5112521;27;19938;-74
2023/03/11 15:15:17;;;;;;;;;;;;;;;;;;5112513;27;20352;-72
2023/03/11 15:17:43;;;;;;;;;;;;;;;;;;5112371;28;20006;-73
2023/03/11 15:20:37;;;;;;;;;;;;;;;;;;5123988;27;19923;-75
2023/03/11 15:25:22;;;;;;;;;;;;;;;;;;5112574;27;19922;-74
2023/03/11 15:27:48;;;;;;;;;;;;;;;;;;5111474;28;20008;-74
2023/03/11 15:34:01;;;;;;;;;;;;;;;;;;5111806;27;19918;-73
2023/03/11 15:36:27;;;;;;;;;;;;;;;;;;5111753;28;19995;-73
2023/03/11 15:38:53;;;;;;;;;;;;;;;;;;5112046;28;19912;-73
2023/03/11 15:46:10;;;;;;;;;;;;;;;;;;5112485;27;19922;-74
2023/03/11 15:48:36;;;;;;;;;;;;;;;;;;5111394;28;20006;-74
2023/03/11 15:51:02;;;;;;;;;;;;;;;;;;5111847;28;19966;-74
2023/03/11 15:58:27;;;;;;;;;;;;;;;;;;5091420;27;19916;-75
2023/03/11 16:00:52;;;;;;;;;;;;;;;;;;5091292;28;20421;-74
2023/03/11 16:03:18;;;;;;;;;;;;;;;;;;5089715;28;19920;-74
2023/03/11 16:05:44;;;;;;;;;;;;;;;;;;5090332;28;20307;-74
2023/03/11 16:08:10;;;;;;;;;;;;;;;;;;5091517;28;19909;-74
2023/03/11 16:11:56;;;;;;;;;;;;;;;;;;5032497;28;20315;-74
2023/03/11 16:14:22;;;;;;;;;;;;;;;;;;5031438;28;19913;-74
2023/03/11 16:16:48;;;;;;;;;;;;;;;;;;5029720;28;19915;-73
2023/03/11 16:19:14;;;;;;;;;;;;;;;;;;5030020;28;19910;-74
2023/03/11 16:21:40;;;;;;;;;;;;;;;;;;5031149;28;20415;-74
2023/03/11 16:24:05;;;;;;;;;;;;;;;;;;5029437;28;19916;-74
2023/03/11 16:26:31;;;;;;;;;;;;;;;;;;5031346;28;19977;-74
2023/03/11 16:28:57;;;;;;;;;;;;;;;;;;5031430;28;19910;-74
2023/03/11 16:31:23;;;;;;;;;;;;;;;;;;5029392;28;19917;-74
2023/03/11 16:33:49;;;;;;;;;;;;;;;;;;5031255;28;19909;-73
2023/03/11 16:36:15;;;;;;;;;;;;;;;;;;5029674;28;19920;-74
2023/03/11 16:38:41;;;;;;;;;;;;;;;;;;5030634;28;20011;-73
2023/03/11 16:41:07;;;;;;;;;;;;;;;;;;5029694;28;19909;-73
2023/03/11 16:43:33;;;;;;;;;;;;;;;;;;5030850;28;19910;-73
2023/03/11 16:45:59;;;;;;;;;;;;;;;;;;5030508;28;19996;-74
2023/03/11 16:48:25;;;;;;;;;;;;;;;;;;5030665;28;20376;-73
2023/03/11 16:50:51;;;;;;;;;;;;;;;;;;5029327;28;20361;-73
2023/03/11 16:53:17;;;;;;;;;;;;;;;;;;5030451;28;19909;-72
2023/03/11 16:55:43;;;;;;;;;;;;;;;;;;5030831;28;20313;-73
2023/03/11 16:58:09;;;;;;;;;;;;;;;;;;5028935;28;20000;-74
2023/03/11 17:00:35;;;;;;;;;;;;;;;;;;5029175;28;19914;-74
2023/03/11 17:03:02;;;;;;;;;;;;;;;;;;5029373;28;19910;-74
2023/03/11 17:05:27;;;;;;;;;;;;;;;;;;5028840;28;19980;-74
2023/03/11 17:07:55;;;;;;;;;;;;;;;;;;5030393;28;19913;-73
2023/03/11 17:10:23;;;;;;;;;;;;;;;;;;5036351;28;19928;-73
2023/03/11 17:12:49;;;;;;;;;;;;;;;;;;5048493;28;19909;-73
2023/03/11 17:15:15;;;;;;;;;;;;;;;;;;5050105;28;20371;-74
2023/03/11 17:17:41;;;;;;;;;;;;;;;;;;5050276;28;20377;-74
2023/03/11 17:20:07;;;;;;;;;;;;;;;;;;5049536;28;19909;-74
2023/03/11 17:22:33;;;;;;;;;;;;;;;;;;5039454;28;19909;-74
2023/03/11 17:25:00;;;;;;;;;;;;;;;;;;5035300;28;19909;-74
2023/03/11 17:27:30;;;;;;;;;;;;;;;;;;5034999;28;19916;-74
2023/03/11 17:29:56;;;;;;;;;;;;;;;;;;5036764;28;19959;-74
2023/03/11 17:32:22;;;;;;;;;;;;;;;;;;5035429;28;19917;-74
2023/03/11 17:34:48;;;;;;;;;;;;;;;;;;5034896;28;19909;-74
2023/03/11 17:37:14;;;;;;;;;;;;;;;;;;5036368;28;19944;-74
2023/03/11 17:39:40;;;;;;;;;;;;;;;;;;5036337;28;19910;-74
2023/03/11 17:42:06;;;;;;;;;;;;;;;;;;5034561;28;20310;-74
2023/03/11 17:44:32;;;;;;;;;;;;;;;;;;5036747;28;20298;-73
2023/03/11 17:46:59;;;;;;;;;;;;;;;;;;5035794;28;20356;-73
2023/03/11 17:49:25;;;;;;;;;;;;;;;;;;5034861;28;19913;-73
2023/03/11 17:51:51;;;;;;;;;;;;;;;;;;5034730;28;19917;-74
2023/03/11 17:54:17;;;;;;;;;;;;;;;;;;5035873;28;20078;-76
2023/03/11 17:56:43;;;;;;;;;;;;;;;;;;5034781;28;19909;-74
2023/03/11 17:59:09;;;;;;;;;;;;;;;;;;5036180;28;19909;-74
2023/03/11 18:01:34;;;;;;;;;;;;;;;;;;5034225;28;20388;-74
2023/03/11 18:04:00;;;;;;;;;;;;;;;;;;5034532;28;19909;-73
2023/03/11 18:06:26;;;;;;;;;;;;;;;;;;5036109;28;19913;-74
2023/03/11 18:08:52;;;;;;;;;;;;;;;;;;5035234;28;19910;-74
2023/03/11 18:11:18;;;;;;;;;;;;;;;;;;5035506;28;19967;-74
2023/03/11 18:13:44;;;;;;;;;;;;;;;;;;5035975;28;19909;-74
2023/03/11 18:16:10;;;;;;;;;;;;;;;;;;5035188;28;20380;-73
2023/03/11 18:18:36;;;;;;;;;;;;;;;;;;5035675;28;19909;-74
2023/03/11 18:21:02;;;;;;;;;;;;;;;;;;5034356;28;20054;-74
2023/03/11 18:23:28;;;;;;;;;;;;;;;;;;5034007;28;19917;-73
2023/03/11 18:25:54;;;;;;;;;;;;;;;;;;5034543;28;20000;-73
2023/03/11 18:28:20;;;;;;;;;;;;;;;;;;5035436;28;19998;-74
2023/03/11 18:30:46;;;;;;;;;;;;;;;;;;5035142;28;19921;-74
2023/03/11 18:33:12;;;;;;;;;;;;;;;;;;5034860;28;20008;-74
2023/03/11 18:35:38;;;;;;;;;;;;;;;;;;5035339;28;20320;-74
2023/03/11 18:38:04;;;;;;;;;;;;;;;;;;5035024;28;19909;-74
2023/03/11 18:40:30;;;;;;;;;;;;;;;;;;5035408;28;19909;-74